Chapelle-lez-Herlaimont, Belgium
Current Conditions -  °F | °C
As of 5:20 PM on Tuesday 21 Oct 2014 (Local Time) from EBCI Reporting Station
Scattered Clouds Scattered Clouds  
Wind Chill: 50°   Ceiling: Unl
Heat Index: 50°   Visibility: 6mi
Dew Point: 41°   Wind: 13mph
Humidity: 71%   Direction: 270°W
Pressure: 29.71"   Gusts: 24mph
Location:  50.47°N, 4.28°E
Report Text: EBCI 211520Z 27011G21KT 230V300 9999 FEW028 SCT042 10/05 Q1006 NOSIG
Loading
Personal Weather Stations






























Interactive Weather Map
Tropical Storm Tracking
New forecast layout! Learn more

10-Day Weather Forecast

Advertisements
Track Severe Weather on mobile